หน้าหลัก
METAR-TAF:

METAR-TAF

ท่าอากาศยาน :

ปาโกปาโก, หมู่เกาะย่อยรอบนอกของสหรัฐอเมริกา

ละติจูด: 14-20S, ลองจิจูด: 170-43W, ความสูง: 3 ม.

การสังเกตสภาพอากาศปัจจุบัน

รายงานได้ทำขึ้นเมื่อ 42 นาทีที่แล้ว ณ เวลา 04:50 UTC
ลม 5 นอตจากทิศทางซึ่งแปรผันได้
อุณหภูมิ 29°C
ความชื้น 79%
ความกดอากาศ 1009 hPa
ทัศนวิสัย: 19.3 กม.
มีเมฆกระจายเป็นบางส่วนที่ความสูง 1500 ฟุต, คิวมูลัสที่ก่อตัวขึ้นสูง.
มีเมฆเป็นส่วนมากเว้นเป็นระยะที่ความสูง 10000 ฟุต
มีเมฆเป็นส่วนมากเว้นเป็นระยะที่ความสูง 20000 ฟุต

METAR: NSTU 250450Z VRB05KT 12SM SCT015TCU BKN100 BKN200 29/25 A2981 RMK TCU W-N-NE SLP095 T02890252

เวลา: 18:32 (05:32 UTC)

การพยากรณ์

รายงานได้ทำขึ้นเมื่อ 5 ชั่วโมงและ 57 นาทีที่แล้ว ณ เวลา 23:35 UTC
การพยากรณ์มีผลตั้งแต่วันที่ 25 ณ เวลา 00 UTC จนถึงวันที่ 25 ณ เวลา 24 UTC
ลม 8 นอตจากตะวันออก
ทัศนวิสัย: 10 กม.
มีเมฆน้อยที่ความสูง 2000 ฟุต
มีเมฆกระจายเป็นบางส่วนที่ความสูง 4000 ฟุต
มีเมฆเป็นส่วนมากเว้นเป็นระยะที่ความสูง 10000 ฟุต
การโปรยปรายในบริเวณใกล้เคียง,

TAF: NSTU 242335Z 2500/2524 09008KT P6SM VCSH FEW020 SCT040 BKN100

สังเกตการณ์สภาพอากาศและพยากรณ์อากาศของสนามบินมากกว่า 4000 แห่ง (รายงาน METAR และ TAF).

สถานีที่ดูได้จะแสดงไว้ด้วยจุดสีเหลืองและสีแดงบนแผนที่.

เลื่อนเมาส์ไปเหนือจุดเพื่อดูชื่อสถานี.

แล้วคลิกเพื่อดูสังเกตการณ์และการพยากรณ์สภาพอากาศ.

ในการเปลี่ยนแผนที่: คลิกที่ปุ่มสีเขียวที่มีกากบาทสีดำเพื่อซูมเข้า; ที่ปุ่มสีเขียวที่มีขีดเพื่อซูมออก; หรือที่ลูกศรสีเขียวเพื่อไปยังแผนที่ที่อยู่ติดกัน.


METAR-TAF: